Portada
METAR-TAF:

METAR-TAF

Aeroports :

Bhopal, Índia

latitud: 23-17-15N, longitud: 77-20-15E, altitud: 524 m

Observació

L'informe es va fer fa 2 hores i 52 minuts, a les 18:30 UTC
Vent 9 kt del Oest/Sud-Oest
Temperatura 31°C
Humitat 43%
Pressió 1001 hPa
Visibilitat: 6000 m

METAR: VABP 221830Z 24009KT 6000 NSC 31/17 Q1001 NOSIG

Hora: 02:52 (21:22 UTC)

Pronòstic

L'informe es va fer fa 1 hora i 22 minuts, a les 20:00 UTC
Pronòstic vàlid del 22 a les 21 UTC al 23 a les 06 UTC
Vent 10 kt del Oest
Visibilitat: 5000 m
Escasses núvols a una alçada de 2500 ft
Núvols disperses a una alçada de 10000 ft
calitja
Evolucionant progressivament
l' 23 a les 04 UTC al 23 a les 06 UTC
Vent 10 kt del Oest/Sud-Oest amb ràfegues de 25 kt
Visibilitat: 6000 m
Escasses núvols a una alçada de 3000 ft

TAF: VABP 222000Z 2221/2306 27010KT 5000 HZ FEW025 SCT100 BECMG 2304/2306 25010G25KT 6000 FEW030

Observacions i pronòstics meteorològics de més de 4000 aeroports (METAR i TAF).

Les estacions disponibles són els punts grocs i vermells al mapa.

Posi el ratolí al punt desitjat per veure el nom de l'estació.

Feu clic per veure les observacions i els pronòstics meteorològics.

Per canviar el mapa: feu clic els botons verds amb una creu de color negre per apropar; al botó verd amb un guió per allunyar la imatge; o en les fletxes verdes per a mapes adjacents.


METAR-TAF: